Airfield :
LOGIN :

Register | Disclaimer

   EN    FR    IT 

 










Legend :    VFR   Marginal VFR   IFR   Intensive IFR   Very Intensive IFR
Visi :
Ceiling :
>= 8 km
>= 3000ft
5 to 8 km
1000 to 3000 ft
1500m to 5 km
500 to 1000 ft
800 to 1500m
200 to 500 ft
< 800m
< 200 ft
Symbols :   Thunderstorms  Fog  Heavy snow  Heavy precipitations  Wind > 20 kt
SIGMETs :     Misc.  Thunderstorms  Icing  Turbulence  Mountain Waves  Volcanic Ashes







- Airport Elevation : 255 ft


ENGC - Gullfaks C oil platform

CURRENT METAR :
  • 202050Z 21043G53KT 7000 -RA BKN007 07/07 Q1009 W07/S5

EXPIRED METARs :
  • 201950Z 20037KT 6000 -RA BKN012 06/05 Q1011 W07/S5
  • 201920Z 20034KT 8000 -RA BKN012 06/05 Q1012 W07/S5
  • 201850Z 21034KT 9000 -RA BKN018 06/04 Q1013 W07/S5
  • 201820Z 21036KT 8000 -RA BKN015 06/04 Q1013 W07/S5

TAF TAF ENGC
Valid from the 20 at 21:00 until the 21 at 21:00 UTC


2021/2121 18038KT 9999 BKN012
BECMG 2021/2023 4000 RADZ BR BKN008
BECMG 2022/2024 24040KT
BECMG 2101/2103 29030KT 9999 -SHRA FEW012TCU SCT025
BECMG 2110/2112 31020KT
BECMG 2115/2118 25012KT
BECMG 2118/2121 18018KT
No reported NOTAMs for that airfield.
3 SIGMETs reported for the Norway FIR (ENOR) :
 
Severe turbulence
ENSV SIGMET B01 VALID 201950/202350 ENVV
ENOR NORWAY FIR SEV TURB FCST WI N6300 E00000 - N6300 E00400 - N6200 E00500 - N6200 E00000 - N6300 E00000 FL340/390 STNR NC=
Severe turbulence
ENBD SIGMET D01 VALID 202000/210000 ENVN
ENOR NORWAY FIR SEV TURB FCST WI N6500 E00605 - N6600 E00720 - N6600 E01430 - N6500 E01415 - N6500 E00605 FL340/390 STNR NC=
Severe turbulence
ENBD SIGMET C01 VALID 201945/202345 ENVV
ENOR NORWAY FIR SEV TURB FCST WI N6200 E00500 - N6300 E00400 - N6500 E00605 - N6500 E01415 - N6200 E01215 - N6200 E00500 FL340/390 STNR NC=



MET'MAP, your aeronautical weather chart ! - Copyright ORBIFLY December 2007 - Disclaimer

ORBIFLY MET'MAP TEAM :

Programming & Development : Alexandra Zaïnal
Concept & Development : Baudouin d'Aumeries
Co-Development & Prog : Marc-Olivier Méhu
Technical & hardware support : Manuel Goepfert

Contact : metmap@orbifly.com




SOURCES & CREDITS :

   NOAA